Time;durP1;ratioP1;P1;durP2;ratioP2;P2;SDS_P1;SDS_P2;PMS_P1;PMS_P2;Temp;Humidity;BMP_temperature;BMP_pressure;BME280_temperature;BME280_humidity;BME280_pressure;Samples;Min_cycle;Max_cycle;Signal;HPM_P1;HPM_P2
2020/12/01 00:02:08;;;;;;;29.63;18.70;;;1.50;99.90;;;;;;5011498;28;20057;-73
2020/12/01 00:04:34;;;;;;;32.45;20.38;;;1.60;99.90;;;;;;5009052;28;20106;-73
2020/12/01 00:07:00;;;;;;;24.02;14.85;;;1.60;99.90;;;;;;5007939;28;20029;-73
2020/12/01 00:09:25;;;;;;;22.85;13.80;;;1.60;99.90;;;;;;5009111;28;20038;-73
2020/12/01 00:11:51;;;;;;;24.95;14.88;;;1.60;99.90;;;;;;5018861;28;20033;-73
2020/12/01 00:14:17;;;;;;;24.70;14.40;;;1.60;99.90;;;;;;5028966;28;20044;-72
2020/12/01 00:16:45;;;;;;;27.38;16.05;;;1.60;99.90;;;;;;5026637;28;20426;-73
2020/12/01 00:19:10;;;;;;;25.77;15.73;;;1.60;99.90;;;;;;5028261;28;20463;-73
2020/12/01 00:21:36;;;;;;;28.80;16.02;;;1.60;99.90;;;;;;5020937;28;20250;-73
2020/12/01 00:24:03;;;;;;;31.63;18.50;;;1.60;99.90;;;;;;5008829;28;20056;-73
2020/12/01 00:26:28;;;;;;;31.30;18.20;;;1.60;99.90;;;;;;5010298;28;20053;-73
2020/12/01 00:28:54;;;;;;;31.40;18.23;;;1.60;99.90;;;;;;5028777;28;20106;-73
2020/12/01 00:31:21;;;;;;;30.80;18.67;;;1.60;99.90;;;;;;5026405;28;20037;-73
2020/12/01 00:33:47;;;;;;;30.77;19.63;;;1.60;99.90;;;;;;5028480;28;20296;-73
2020/12/01 00:36:13;;;;;;;31.90;19.55;;;1.70;99.90;;;;;;5027230;28;20387;-73
2020/12/01 00:38:40;;;;;;;32.63;19.15;;;1.70;99.90;;;;;;5027430;28;20026;-73
2020/12/01 00:41:05;;;;;;;32.22;19.20;;;1.60;99.90;;;;;;5027596;28;20042;-73
2020/12/01 00:43:31;;;;;;;30.02;18.52;;;1.70;99.90;;;;;;5026582;28;20033;-73
2020/12/01 00:45:57;;;;;;;34.28;18.98;;;1.60;99.90;;;;;;5027846;28;20049;-73
2020/12/01 00:48:22;;;;;;;33.28;19.85;;;1.60;99.90;;;;;;5025377;28;20025;-73
2020/12/01 00:50:48;;;;;;;34.60;20.70;;;1.60;99.90;;;;;;5028632;28;20615;-73
2020/12/01 00:53:14;;;;;;;31.90;19.58;;;1.60;99.90;;;;;;5025384;28;20048;-73
2020/12/01 00:55:40;;;;;;;34.75;18.95;;;1.50;99.90;;;;;;5028075;28;20037;-73
2020/12/01 00:58:05;;;;;;;36.08;21.08;;;1.50;99.90;;;;;;5026283;28;20530;-74
2020/12/01 01:00:32;;;;;;;36.67;19.95;;;1.40;99.90;;;;;;5028062;28;20033;-73
2020/12/01 01:02:57;;;;;;;33.03;18.65;;;1.40;99.90;;;;;;5026565;28;20037;-73
2020/12/01 01:05:23;;;;;;;35.42;19.77;;;1.40;99.90;;;;;;5027795;28;20499;-73
2020/12/01 01:07:49;;;;;;;34.03;19.50;;;1.40;99.90;;;;;;5025980;28;20459;-73
2020/12/01 01:10:26;;;;;;;32.92;18.98;;;1.30;99.90;;;;;;5027898;28;20053;-73
2020/12/01 01:12:51;;;;;;;31.73;18.75;;;1.40;99.90;;;;;;5026296;28;20056;-73
2020/12/01 01:15:17;;;;;;;32.53;18.77;;;1.40;99.90;;;;;;5027990;28;20475;-73
2020/12/01 01:17:43;;;;;;;32.22;19.33;;;1.40;99.90;;;;;;5027020;28;20534;-73
2020/12/01 01:20:10;;;;;;;30.58;18.60;;;1.40;99.90;;;;;;5024302;28;20141;-73
2020/12/01 01:22:36;;;;;;;32.63;18.13;;;1.50;99.90;;;;;;5027055;28;20021;-73
2020/12/01 01:25:02;;;;;;;29.27;17.83;;;1.50;99.90;;;;;;5026401;28;20049;-73
2020/12/01 01:27:28;;;;;;;30.83;18.60;;;1.60;99.90;;;;;;5026842;28;20071;-73
2020/12/01 01:29:54;;;;;;;28.77;17.77;;;1.50;99.90;;;;;;5025939;28;20045;-73
2020/12/01 01:32:19;;;;;;;29.83;18.35;;;1.60;99.90;;;;;;5027386;28;20034;-73
2020/12/01 01:34:45;;;;;;;32.78;16.52;;;1.60;99.90;;;;;;5025692;28;20114;-73
2020/12/01 01:37:10;;;;;;;27.67;16.80;;;1.60;99.90;;;;;;5027129;28;20044;-73
2020/12/01 01:39:36;;;;;;;32.72;18.23;;;1.70;99.90;;;;;;5019515;28;20052;-73
2020/12/01 01:42:08;;;;;;;30.73;18.60;;;1.70;99.90;;;;;;5027282;28;20037;-73
2020/12/01 01:44:34;;;;;;;;;;;1.60;99.90;;;;;;5025244;28;20042;-73
2020/12/01 01:47:09;;;;;;;36.70;19.20;;;1.60;99.90;;;;;;5026849;28;19951;-73
2020/12/01 01:49:40;;;;;;;31.27;18.67;;;1.60;99.90;;;;;;5025310;28;20038;-73
2020/12/01 01:52:33;;;;;;;32.33;18.23;;;1.50;99.90;;;;;;5026587;28;20040;-73
2020/12/01 01:55:20;;;;;;;30.90;18.42;;;1.60;99.90;;;;;;5025106;28;20042;-73
2020/12/01 01:57:51;;;;;;;30.40;17.65;;;1.60;99.90;;;;;;5026824;28;20721;-73
2020/12/01 02:00:58;;;;;;;33.17;19.27;;;1.60;99.90;;;;;;5024563;28;20065;-73
2020/12/01 02:03:48;;;;;;;30.45;17.67;;;1.60;99.90;;;;;;5026399;28;20029;-73
2020/12/01 02:06:23;;;;;;;32.88;18.10;;;1.60;99.90;;;;;;5015497;28;20491;-73
2020/12/01 02:09:01;;;;;;;32.63;17.58;;;1.60;99.90;;;;;;5007001;28;20026;-73
2020/12/01 02:11:29;;;;;;;32.25;18.10;;;1.60;99.90;;;;;;5014731;28;20033;-73
2020/12/01 02:14:07;;;;;;;29.85;18.65;;;1.60;99.90;;;;;;5026867;28;20037;-73
2020/12/01 02:16:35;;;;;;;30.45;16.83;;;1.70;99.90;;;;;;5024408;28;20419;-73
2020/12/01 02:19:02;;;;;;;30.42;16.50;;;1.70;99.90;;;;;;5025947;28;20044;-73
2020/12/01 02:21:32;;;;;;;28.83;19.38;;;1.80;99.90;;;;;;5024590;28;20025;-73
2020/12/01 02:24:00;;;;;;;29.88;18.02;;;1.80;99.90;;;;;;5026292;28;20037;-73
2020/12/01 02:26:26;;;;;;;30.05;18.85;;;1.90;99.90;;;;;;5019117;28;20694;-73
2020/12/01 02:28:52;;;;;;;30.40;19.08;;;2.00;99.90;;;;;;5006831;28;20067;-73
2020/12/01 02:31:18;;;;;;;30.95;19.48;;;2.00;99.90;;;;;;5005366;28;20150;-73
2020/12/01 02:33:44;;;;;;;32.00;19.50;;;2.00;99.90;;;;;;5006495;28;20387;-73
2020/12/01 02:36:09;;;;;;;31.45;19.65;;;2.00;99.90;;;;;;5004536;28;20073;-73
2020/12/01 02:38:35;;;;;;;34.05;19.52;;;2.00;99.90;;;;;;5025408;28;20036;-73
2020/12/01 02:41:01;;;;;;;32.78;19.88;;;2.00;99.90;;;;;;5025437;28;20033;-73
2020/12/01 02:43:27;;;;;;;35.75;19.90;;;2.00;99.90;;;;;;5007398;28;20041;-73
2020/12/01 02:45:53;;;;;;;31.83;19.08;;;2.00;99.90;;;;;;5006227;28;20026;-73
2020/12/01 02:48:18;;;;;;;33.28;19.10;;;1.90;99.90;;;;;;5017153;28;20083;-74
2020/12/01 02:50:44;;;;;;;33.45;19.77;;;1.90;99.90;;;;;;5025665;28;20046;-73
2020/12/01 02:53:10;;;;;;;34.03;21.42;;;1.90;99.90;;;;;;5025236;28;20108;-73
2020/12/01 02:55:35;;;;;;;33.65;20.63;;;1.90;99.90;;;;;;5023739;28;20038;-73
2020/12/01 02:58:01;;;;;;;33.17;20.13;;;1.80;99.90;;;;;;5025633;28;20407;-73
2020/12/01 03:00:27;;;;;;;33.72;19.02;;;1.80;99.90;;;;;;5025588;28;20037;-73
2020/12/01 03:02:52;;;;;;;29.40;17.55;;;1.80;99.90;;;;;;5024527;28;20025;-73
2020/12/01 03:05:18;;;;;;;29.65;17.40;;;1.70;99.90;;;;;;5025852;28;20040;-73
2020/12/01 03:07:43;;;;;;;30.23;18.63;;;1.80;99.90;;;;;;5023984;28;20165;-73
2020/12/01 03:10:09;;;;;;;31.23;17.92;;;1.80;99.90;;;;;;5024299;28;20054;-73
2020/12/01 03:12:35;;;;;;;33.08;19.23;;;1.70;99.90;;;;;;5024469;28;20037;-73
2020/12/01 03:15:02;;;;;;;32.67;19.52;;;1.70;99.90;;;;;;5025623;28;20034;-73
2020/12/01 03:17:27;;;;;;;27.95;16.45;;;1.60;99.90;;;;;;5024970;28;20032;-73
2020/12/01 03:19:53;;;;;;;31.85;17.70;;;1.60;99.90;;;;;;5024237;28;20053;-73
2020/12/01 03:22:19;;;;;;;33.10;18.70;;;1.60;99.90;;;;;;5024440;28;20498;-73
2020/12/01 03:24:45;;;;;;;30.23;18.23;;;1.60;99.90;;;;;;5009774;28;20033;-73
2020/12/01 03:27:10;;;;;;;31.42;17.15;;;1.60;99.90;;;;;;5004306;28;20433;-73
2020/12/01 03:29:36;;;;;;;35.17;20.85;;;1.70;99.90;;;;;;5016149;28;20037;-73
2020/12/01 03:32:02;;;;;;;33.00;19.10;;;1.70;99.90;;;;;;5025379;28;20025;-73
2020/12/01 03:34:27;;;;;;;33.55;19.17;;;1.70;99.90;;;;;;5023347;28;20103;-73
2020/12/01 03:36:53;;;;;;;32.60;18.80;;;1.70;99.90;;;;;;5025871;28;20044;-73
2020/12/01 03:39:19;;;;;;;34.88;19.90;;;1.70;99.90;;;;;;5023366;28;20406;-73
2020/12/01 03:41:44;;;;;;;32.95;19.58;;;1.70;99.90;;;;;;5025463;28;20073;-73
2020/12/01 03:44:10;;;;;;;33.83;19.52;;;1.60;99.90;;;;;;5023389;28;20156;-73
2020/12/01 03:46:35;;;;;;;31.63;18.35;;;1.60;99.90;;;;;;5025060;28;20056;-73
2020/12/01 03:49:01;;;;;;;34.97;21.50;;;1.60;99.90;;;;;;5022244;28;20063;-73
2020/12/01 03:51:27;;;;;;;34.40;19.05;;;1.60;99.90;;;;;;5005161;28;20042;-73
2020/12/01 03:53:53;;;;;;;34.40;18.95;;;1.50;99.90;;;;;;5004486;28;20041;-73
2020/12/01 03:56:19;;;;;;;32.15;18.08;;;1.60;99.90;;;;;;5004648;28;20037;-73
2020/12/01 03:58:46;;;;;;;30.92;18.80;;;1.60;99.90;;;;;;5004947;28;20494;-73
2020/12/01 04:01:11;;;;;;;30.42;17.85;;;1.70;99.90;;;;;;5020261;28;20077;-73
2020/12/01 04:03:37;;;;;;;32.95;19.17;;;1.70;99.90;;;;;;5024509;28;20057;-73
2020/12/01 04:06:04;;;;;;;31.58;19.08;;;1.70;99.90;;;;;;5009241;28;20042;-73
2020/12/01 04:08:29;;;;;;;30.05;18.25;;;1.70;99.90;;;;;;5003317;28;20041;-73
2020/12/01 04:10:55;;;;;;;34.72;19.52;;;1.70;99.90;;;;;;5014191;28;20402;-73
2020/12/01 04:13:21;;;;;;;31.85;17.92;;;1.70;99.90;;;;;;5025003;28;20034;-73
2020/12/01 04:15:46;;;;;;;31.15;18.13;;;1.70;99.90;;;;;;5023597;28;20033;-73
2020/12/01 04:18:12;;;;;;;35.25;18.73;;;1.70;99.90;;;;;;5025005;28;20056;-73
2020/12/01 04:20:38;;;;;;;34.58;19.42;;;1.60;99.90;;;;;;5022826;28;20153;-73
2020/12/01 04:23:04;;;;;;;35.38;20.85;;;1.60;99.90;;;;;;5025626;28;20566;-73
2020/12/01 04:25:30;;;;;;;35.22;19.55;;;1.60;99.90;;;;;;5024641;28;20503;-73
2020/12/01 04:27:56;;;;;;;34.55;20.58;;;1.70;99.90;;;;;;5008910;28;20400;-73
2020/12/01 04:30:23;;;;;;;30.30;19.58;;;1.60;99.90;;;;;;5007772;28;20479;-73
2020/12/01 04:32:50;;;;;;;31.73;18.80;;;1.70;99.90;;;;;;5009203;28;20037;-74
2020/12/01 04:35:17;;;;;;;33.15;18.50;;;1.60;99.90;;;;;;5008157;28;20026;-73
2020/12/01 04:37:42;;;;;;;30.60;17.45;;;1.60;99.90;;;;;;5025225;28;20458;-73
2020/12/01 04:40:14;;;;;;;33.40;19.85;;;1.60;99.90;;;;;;5027962;28;20036;-73
2020/12/01 04:42:49;;;;;;;33.92;18.42;;;1.80;99.90;;;;;;5027189;28;20038;-74
2020/12/01 04:45:15;;;;;;;28.48;16.88;;;1.80;99.90;;;;;;5028226;28;20025;-73
2020/12/01 04:47:57;;;;;;;29.63;17.02;;;1.70;99.90;;;;;;5012508;28;20369;-73
2020/12/01 04:50:52;;;;;;;35.58;20.88;;;1.70;99.90;;;;;;5024161;28;20030;-74
2020/12/01 04:54:01;;;;;;;38.95;21.70;;;1.50;99.90;;;;;;5026134;28;20521;-73
2020/12/01 04:56:51;;;;;;;40.60;23.75;;;1.40;99.90;;;;;;5023998;28;20160;-73
2020/12/01 04:59:59;;;;;;;36.47;18.23;;;1.20;99.90;;;;;;5014630;28;20029;-74
2020/12/01 05:02:37;;;;;;;40.55;23.73;;;1.20;99.90;;;;;;5020164;28;20053;-74
2020/12/01 05:05:38;;;;;;;37.60;22.38;;;1.30;99.90;;;;;;5019736;28;20099;-73
2020/12/01 05:08:31;;;;;;;34.63;20.90;;;1.30;99.90;;;;;;5015019;28;20458;-74
2020/12/01 05:11:01;;;;;;;44.90;26.20;;;1.30;99.90;;;;;;5019443;28;20033;-74
2020/12/01 05:13:31;;;;;;;51.03;27.05;;;1.30;99.90;;;;;;5019298;28;20046;-74
2020/12/01 05:16:24;;;;;;;51.83;30.33;;;1.30;99.90;;;;;;5021530;28;20540;-73
2020/12/01 05:18:49;;;;;;;47.70;26.92;;;1.30;99.90;;;;;;5013547;28;20414;-73
2020/12/01 05:21:20;;;;;;;42.95;26.08;;;1.30;99.90;;;;;;5011138;28;20045;-74
2020/12/01 05:23:48;;;;;;;40.65;24.63;;;1.30;99.90;;;;;;5013827;28;20026;-74
2020/12/01 05:26:17;;;;;;;52.50;29.63;;;1.30;99.90;;;;;;5016096;28;20053;-74
2020/12/01 05:28:47;;;;;;;39.90;23.98;;;1.20;99.90;;;;;;5021015;28;20028;-74
2020/12/01 05:31:14;;;;;;;38.83;23.90;;;1.20;99.90;;;;;;5018779;28;20052;-73
2020/12/01 05:33:39;;;;;;;45.97;27.50;;;1.30;99.90;;;;;;5018363;28;20041;-74
2020/12/01 05:36:20;;;;;;;44.22;27.08;;;1.20;99.90;;;;;;5018201;28;20041;-73
2020/12/01 05:39:07;;;;;;;44.10;26.95;;;1.30;99.90;;;;;;5005843;28;20155;-74
2020/12/01 05:41:37;;;;;;;44.22;28.48;;;1.30;99.90;;;;;;5005175;28;20044;-74
2020/12/01 05:44:16;;;;;;;47.53;26.55;;;1.20;99.90;;;;;;5007441;28;20415;-74
2020/12/01 05:46:45;;;;;;;36.05;23.02;;;1.20;99.90;;;;;;5006377;28;20375;-74
2020/12/01 05:49:29;;;;;;;41.42;25.83;;;1.30;99.90;;;;;;5026743;28;20521;-74
2020/12/01 05:52:20;;;;;;;38.67;24.73;;;1.30;99.90;;;;;;5024866;28;20501;-74
2020/12/01 05:54:48;;;;;;;43.10;25.20;;;1.30;99.90;;;;;;5026823;28;20038;-74
2020/12/01 05:57:20;;;;;;;39.67;23.00;;;1.40;99.90;;;;;;5022779;28;20970;-73
2020/12/01 05:59:56;;;;;;;41.70;25.63;;;1.40;99.90;;;;;;5007058;28;20041;-74
2020/12/01 06:02:35;;;;;;;39.10;23.52;;;1.50;99.90;;;;;;5022094;28;20136;-73
2020/12/01 06:05:02;;;;;;;38.40;23.33;;;1.40;99.90;;;;;;5026435;28;20037;-74
2020/12/01 06:07:29;;;;;;;36.45;21.17;;;1.40;99.90;;;;;;5008658;28;20106;-73
2020/12/01 06:10:14;;;;;;;39.20;24.08;;;1.40;99.90;;;;;;5009677;28;20082;-74
2020/12/01 06:12:45;;;;;;;37.38;22.35;;;1.40;99.90;;;;;;5027059;28;20060;-74
2020/12/01 06:15:14;;;;;;;36.15;22.95;;;1.50;99.90;;;;;;5022771;28;20087;-73
2020/12/01 06:18:09;;;;;;;42.70;25.58;;;1.40;99.90;;;;;;5023469;28;20392;-74
2020/12/01 06:20:51;;;;;;;48.92;26.67;;;1.40;99.90;;;;;;5008789;28;20049;-73
2020/12/01 06:23:33;;;;;;;46.10;26.70;;;1.40;99.90;;;;;;5019108;28;20384;-74
2020/12/01 06:26:14;;;;;;;45.60;26.50;;;1.40;99.90;;;;;;5021787;28;20041;-73
2020/12/01 06:29:04;;;;;;;44.20;25.38;;;1.30;99.90;;;;;;5011338;28;20018;-74
2020/12/01 06:31:36;;;;;;;46.08;24.35;;;1.40;99.90;;;;;;5026034;28;20029;-73
2020/12/01 06:34:39;;;;;;;36.45;23.25;;;1.40;99.90;;;;;;5018621;28;20044;-73
2020/12/01 06:37:25;;;;;;;;;;;1.50;99.90;;;;;;5027764;28;20037;-73
2020/12/01 06:40:00;;;;;;;37.75;22.75;;;1.50;99.90;;;;;;5019540;28;19920;-73
2020/12/01 06:43:01;;;;;;;37.08;23.00;;;1.50;99.90;;;;;;5018774;28;20025;-74
2020/12/01 06:45:37;;;;;;;37.70;23.00;;;1.50;99.90;;;;;;4999475;28;20151;-73
2020/12/01 06:48:13;;;;;;;45.47;26.23;;;1.50;99.90;;;;;;5028952;28;20029;-74
2020/12/01 06:50:44;;;;;;;35.25;21.88;;;1.50;99.90;;;;;;5021570;28;20040;-74
2020/12/01 06:53:09;;;;;;;39.65;24.42;;;1.50;99.90;;;;;;5017873;28;20033;-74
2020/12/01 06:55:54;;;;;;;44.60;26.52;;;1.50;99.90;;;;;;5012710;28;20437;-73
2020/12/01 06:58:25;;;;;;;48.55;28.50;;;1.50;99.90;;;;;;5017288;28;20388;-73
2020/12/01 07:01:22;;;;;;;47.03;26.83;;;1.60;99.90;;;;;;5013478;28;20155;-74
2020/12/01 07:04:19;;;;;;;51.20;27.70;;;1.60;99.90;;;;;;5017620;28;20542;-74
2020/12/01 07:06:54;;;;;;;46.17;26.17;;;1.60;99.90;;;;;;5014311;28;20680;-73
2020/12/01 07:09:40;;;;;;;44.83;26.67;;;1.60;99.90;;;;;;5018277;28;20186;-73
2020/12/01 07:12:18;;;;;;;44.28;28.80;;;1.60;99.90;;;;;;5021849;28;20619;-74
2020/12/01 07:14:51;;;;;;;43.38;26.88;;;1.70;99.90;;;;;;5018429;28;20526;-73
2020/12/01 07:17:20;;;;;;;56.47;24.70;;;1.60;99.90;;;;;;5017145;28;20041;-74
2020/12/01 07:20:07;;;;;;;75.80;24.33;;;1.70;99.90;;;;;;5013223;28;20084;-73
2020/12/01 07:22:39;;;;;;;44.08;21.85;;;1.70;99.90;;;;;;5023518;28;20192;-74
2020/12/01 07:25:26;;;;;;;42.07;21.83;;;1.70;99.90;;;;;;5026468;28;20401;-74
2020/12/01 07:28:04;;;;;;;40.53;22.27;;;1.70;99.90;;;;;;5019981;28;20574;-73
2020/12/01 07:30:34;;;;;;;35.65;20.95;;;1.70;99.90;;;;;;5028404;28;20033;-74
2020/12/01 07:33:12;;;;;;;37.50;22.10;;;1.80;99.90;;;;;;5022570;28;20072;-74
2020/12/01 07:35:43;;;;;;;61.20;27.08;;;1.90;99.90;;;;;;5018621;28;20058;-74
2020/12/01 07:38:28;;;;;;;61.25;23.02;;;1.90;99.90;;;;;;5029089;28;20037;-74
2020/12/01 07:41:10;;;;;;;38.50;21.83;;;1.90;99.90;;;;;;5018908;28;20033;-73
2020/12/01 07:43:35;;;;;;;31.80;20.02;;;1.90;99.90;;;;;;5021463;28;20072;-74
2020/12/01 07:46:03;;;;;;;33.85;20.58;;;1.90;99.90;;;;;;5020420;28;20045;-74
2020/12/01 07:48:29;;;;;;;54.47;29.65;;;1.80;99.90;;;;;;5017708;28;20026;-74
2020/12/01 07:51:11;;;;;;;43.20;23.48;;;1.90;99.90;;;;;;5010964;28;20044;-73
2020/12/01 07:53:42;;;;;;;35.53;20.95;;;1.90;99.90;;;;;;5017616;28;20059;-74
2020/12/01 07:56:13;;;;;;;31.10;19.80;;;1.90;99.90;;;;;;5013713;28;20048;-74
2020/12/01 07:58:38;;;;;;;38.03;23.00;;;1.90;99.90;;;;;;5025535;28;20580;-73
2020/12/01 08:01:15;;;;;;;38.58;21.23;;;2.00;99.90;;;;;;5025549;28;20045;-74
2020/12/01 08:03:41;;;;;;;41.03;22.30;;;2.00;99.90;;;;;;5021461;28;20121;-74
2020/12/01 08:06:12;;;;;;;39.55;23.85;;;2.00;99.90;;;;;;5020155;28;20038;-74
2020/12/01 08:08:41;;;;;;;35.75;21.45;;;2.00;99.90;;;;;;5026749;28;20445;-74
2020/12/01 08:11:11;;;;;;;32.97;17.27;;;2.00;99.90;;;;;;5023385;28;20045;-74
2020/12/01 08:13:37;;;;;;;31.65;16.50;;;2.10;99.90;;;;;;5023208;28;20029;-74
2020/12/01 08:16:14;;;;;;;33.05;18.10;;;2.00;99.90;;;;;;5024117;28;20042;-74
2020/12/01 08:18:40;;;;;;;32.00;18.40;;;2.00;99.90;;;;;;5026617;28;20048;-74
2020/12/01 08:21:07;;;;;;;34.55;17.05;;;2.10;99.90;;;;;;5021905;28;20057;-74
2020/12/01 08:23:34;;;;;;;39.05;18.27;;;2.00;99.90;;;;;;5024406;28;20060;-74
2020/12/01 08:26:19;;;;;;;41.30;21.95;;;2.00;99.90;;;;;;5023464;28;20092;-74
2020/12/01 08:28:54;;;;;;;41.38;21.10;;;2.00;99.90;;;;;;5025499;28;20493;-73
2020/12/01 08:31:44;;;;;;;34.60;19.35;;;2.00;99.90;;;;;;5032967;28;20038;-73
2020/12/01 08:34:21;;;;;;;33.60;19.95;;;2.00;99.90;;;;;;5021579;28;20144;-73
2020/12/01 08:37:03;;;;;;;34.50;18.83;;;2.00;99.90;;;;;;5024196;28;20069;-74
2020/12/01 08:40:06;;;;;;;34.13;19.73;;;2.00;99.90;;;;;;5031801;28;20026;-73
2020/12/01 08:42:56;;;;;;;33.67;18.10;;;2.00;99.90;;;;;;5022817;28;20135;-73
2020/12/01 08:45:42;;;;;;;32.83;17.83;;;2.00;99.90;;;;;;5021233;28;20033;-73
2020/12/01 08:48:47;;;;;;;32.65;18.52;;;2.00;99.90;;;;;;5024461;28;20029;-74
2020/12/01 08:51:21;;;;;;;32.47;16.65;;;2.00;99.90;;;;;;5012390;28;20140;-73
2020/12/01 08:54:13;;;;;;;35.08;18.55;;;2.00;99.90;;;;;;5030503;28;20061;-73
2020/12/01 08:56:49;;;;;;;38.00;19.30;;;2.10;99.90;;;;;;5023819;28;20515;-73
2020/12/01 08:59:32;;;;;;;43.60;22.17;;;2.10;99.90;;;;;;5029399;28;20033;-73
2020/12/01 09:02:07;;;;;;;48.65;24.73;;;2.10;99.90;;;;;;5024867;28;20095;-73
2020/12/01 09:04:34;;;;;;;40.15;22.13;;;2.10;99.90;;;;;;5024903;28;20025;-74
2020/12/01 09:07:18;;;;;;;51.30;23.88;;;2.20;99.90;;;;;;5022054;28;20070;-73
2020/12/01 09:09:50;;;;;;;45.90;22.25;;;2.20;99.90;;;;;;5023436;28;20054;-74
2020/12/01 09:15:15;;;;;;;37.00;20.77;;;2.20;99.90;;;;;;5021884;28;20432;-74
2020/12/01 09:23:32;;;;;;;37.28;20.65;;;2.10;99.90;;;;;;5022276;28;20535;-73
2020/12/01 09:26:00;;;;;;;46.10;22.95;;;2.10;99.90;;;;;;5024534;28;20462;-73
2020/12/01 09:28:30;;;;;;;53.97;24.77;;;2.10;99.90;;;;;;5017637;28;20030;-73
2020/12/01 09:31:04;;;;;;;52.75;26.63;;;2.00;99.90;;;;;;5023595;28;20080;-73
2020/12/01 09:33:30;;;;;;;54.15;28.40;;;1.90;99.90;;;;;;5018831;28;20034;-74
2020/12/01 09:35:56;;;;;;;54.95;26.50;;;2.00;99.90;;;;;;5024543;28;20040;-74
2020/12/01 09:38:21;;;;;;;53.03;26.25;;;2.10;99.90;;;;;;5023302;28;20033;-74
2020/12/01 09:40:50;;;;;;;39.58;22.17;;;2.10;99.90;;;;;;5025124;28;20083;-73
2020/12/01 09:45:44;;;;;;;40.25;21.45;;;2.10;99.90;;;;;;5020194;28;20021;-74
2020/12/01 09:48:18;;;;;;;36.78;20.83;;;2.10;99.90;;;;;;5014452;28;20033;-73
2020/12/01 09:50:44;;;;;;;43.47;23.80;;;2.20;99.90;;;;;;5025152;28;20104;-73
2020/12/01 09:56:02;;;;;;;47.45;24.75;;;2.20;99.90;;;;;;5030040;28;20029;-73
2020/12/01 10:09:27;;;;;;;47.10;24.92;;;2.10;99.90;;;;;;5028694;28;20025;-74
2020/12/01 10:12:17;;;;;;;54.13;29.63;;;2.30;99.90;;;;;;5021322;28;20094;-74
2020/12/01 10:34:10;;;;;;;42.38;26.30;;;2.60;99.90;;;;;;5022827;28;20044;-74
2020/12/01 10:36:30;;;;;;;45.20;23.35;;;2.50;99.90;;;;;;5023347;28;20037;-74
2020/12/01 10:38:57;;;;;;;45.22;25.38;;;2.40;99.90;;;;;;5021146;28;20049;-73
2020/12/01 10:41:31;;;;;;;40.08;20.73;;;2.40;99.90;;;;;;5013008;28;20539;-74
2020/12/01 10:43:58;;;;;;;45.00;26.73;;;2.30;99.90;;;;;;5027321;28;20513;-73
2020/12/01 10:46:24;;;;;;;43.60;24.45;;;2.40;99.90;;;;;;5022318;28;20030;-74
2020/12/01 10:48:49;;;;;;;40.10;25.17;;;2.50;99.90;;;;;;5020374;28;20030;-73
2020/12/01 10:51:16;;;;;;;35.30;23.30;;;2.60;99.90;;;;;;5022487;28;20033;-73
2020/12/01 10:53:41;;;;;;;43.83;25.52;;;2.70;99.90;;;;;;5023191;28;20068;-74
2020/12/01 10:56:07;;;;;;;50.15;26.05;;;2.80;99.90;;;;;;5018924;28;20538;-74
2020/12/01 10:58:32;;;;;;;37.85;24.52;;;2.90;99.90;;;;;;5021093;28;20033;-74
2020/12/01 11:00:58;;;;;;;38.63;23.90;;;2.90;99.90;;;;;;5019183;28;20037;-74
2020/12/01 11:03:25;;;;;;;37.25;21.48;;;2.90;99.90;;;;;;5016702;28;20083;-74
2020/12/01 11:05:50;;;;;;;35.38;22.58;;;2.90;99.90;;;;;;5022021;28;20427;-74
2020/12/01 11:08:16;;;;;;;41.95;23.50;;;2.90;99.90;;;;;;5024352;28;20483;-74
2020/12/01 11:10:42;;;;;;;40.03;23.90;;;2.80;99.90;;;;;;5018641;28;20376;-74
2020/12/01 11:13:09;;;;;;;41.92;23.45;;;2.70;99.90;;;;;;5018926;28;20041;-74
2020/12/01 11:15:35;;;;;;;40.83;23.98;;;2.60;99.90;;;;;;5020747;28;20124;-74
2020/12/01 11:18:00;;;;;;;41.30;26.25;;;2.60;99.90;;;;;;5021400;28;20041;-74
2020/12/01 11:20:26;;;;;;;39.17;22.83;;;2.60;99.90;;;;;;5018038;28;20076;-74
2020/12/01 11:22:52;;;;;;;43.75;25.77;;;2.60;99.90;;;;;;5017546;28;20045;-74
2020/12/01 11:25:20;;;;;;;44.80;25.15;;;2.70;99.90;;;;;;5019209;28;20041;-74
2020/12/01 11:27:46;;;;;;;34.90;22.63;;;2.80;99.90;;;;;;5016441;28;20030;-74
2020/12/01 11:30:13;;;;;;;54.35;35.90;;;2.80;99.90;;;;;;5021900;28;20059;-74
2020/12/01 11:32:38;;;;;;;57.60;37.33;;;2.80;99.90;;;;;;5016246;28;20048;-74
2020/12/01 11:35:05;;;;;;;59.25;35.35;;;2.70;99.90;;;;;;5014115;28;20512;-74
2020/12/01 11:37:31;;;;;;;55.33;35.70;;;2.60;99.90;;;;;;5022935;28;20040;-74
2020/12/01 11:39:56;;;;;;;41.10;28.73;;;2.60;99.90;;;;;;5021370;28;20030;-74
2020/12/01 11:42:22;;;;;;;56.88;32.42;;;2.70;99.90;;;;;;5022157;28;20041;-74
2020/12/01 11:44:48;;;;;;;54.30;32.90;;;2.60;99.90;;;;;;5026585;28;20037;-74
2020/12/01 11:47:13;;;;;;;54.83;34.20;;;2.50;99.90;;;;;;5022584;28;20039;-74
2020/12/01 11:49:39;;;;;;;48.25;30.33;;;2.60;99.90;;;;;;5018613;28;20446;-74
2020/12/01 11:52:05;;;;;;;44.92;28.40;;;2.60;99.90;;;;;;5016133;28;20531;-74
2020/12/01 11:54:31;;;;;;;42.15;27.65;;;2.60;99.90;;;;;;5016512;28;20056;-74
2020/12/01 11:56:56;;;;;;;54.05;28.85;;;2.50;99.90;;;;;;5012274;28;20067;-74
2020/12/01 11:59:22;;;;;;;44.33;29.55;;;2.60;99.90;;;;;;5014795;28;20040;-74
2020/12/01 12:01:48;;;;;;;52.45;29.85;;;2.70;99.90;;;;;;5023896;28;20045;-73
2020/12/01 12:04:14;;;;;;;52.60;29.75;;;2.70;99.90;;;;;;5020767;28;20484;-74
2020/12/01 12:06:39;;;;;;;45.40;25.20;;;2.80;99.90;;;;;;5022092;28;20108;-74
2020/12/01 12:09:07;;;;;;;45.65;27.08;;;2.80;99.90;;;;;;5019252;28;20049;-74
2020/12/01 12:11:33;;;;;;;51.75;26.42;;;2.80;99.90;;;;;;5021861;28;20796;-74
2020/12/01 12:13:59;;;;;;;44.63;26.08;;;2.70;99.90;;;;;;5017178;28;20030;-74
2020/12/01 12:16:25;;;;;;;51.72;29.27;;;2.80;99.90;;;;;;5024108;28;20518;-74
2020/12/01 12:18:51;;;;;;;42.67;23.80;;;3.00;99.90;;;;;;5024620;28;20049;-74
2020/12/01 12:21:18;;;;;;;51.28;27.15;;;2.90;99.90;;;;;;5014888;28;21349;-74
2020/12/01 12:23:45;;;;;;;37.17;21.38;;;3.00;99.90;;;;;;5024822;28;20144;-74
2020/12/01 12:26:10;;;;;;;33.97;21.30;;;3.00;99.90;;;;;;5018085;28;20437;-74
2020/12/01 12:28:36;;;;;;;41.80;22.25;;;3.00;99.90;;;;;;5017936;28;20025;-74
2020/12/01 12:31:02;;;;;;;26.27;17.50;;;3.00;99.90;;;;;;5016645;28;20038;-74
2020/12/01 12:33:30;;;;;;;33.80;20.75;;;3.10;99.90;;;;;;5019690;28;20297;-74
2020/12/01 12:35:56;;;;;;;38.78;21.05;;;3.10;99.90;;;;;;5021298;28;20025;-74
2020/12/01 12:38:22;;;;;;;35.05;21.55;;;3.20;99.90;;;;;;5020255;28;20059;-74
2020/12/01 12:40:48;;;;;;;44.80;28.52;;;3.10;99.90;;;;;;5022436;28;20100;-74
2020/12/01 12:43:15;;;;;;;47.08;25.95;;;3.20;99.90;;;;;;5019113;28;20037;-74
2020/12/01 12:45:41;;;;;;;44.30;21.83;;;3.20;99.90;;;;;;5019865;28;20431;-73
2020/12/01 12:48:07;;;;;;;33.10;19.55;;;3.30;99.90;;;;;;5027949;28;20125;-74
2020/12/01 12:50:33;;;;;;;38.63;22.73;;;3.30;99.90;;;;;;5022073;28;20116;-74
2020/12/01 12:52:59;;;;;;;32.15;20.30;;;3.30;99.90;;;;;;5029446;28;20479;-74
2020/12/01 12:55:25;;;;;;;28.88;17.55;;;3.30;99.90;;;;;;5020927;28;20029;-74
2020/12/01 12:57:50;;;;;;;31.95;18.92;;;3.30;99.90;;;;;;5026082;28;20037;-74
2020/12/01 13:00:16;;;;;;;29.98;17.42;;;3.30;99.90;;;;;;5025047;28;20083;-74
2020/12/01 13:02:41;;;;;;;31.13;16.67;;;3.40;99.90;;;;;;5020052;28;20044;-74
2020/12/01 13:05:07;;;;;;;38.00;20.40;;;3.40;99.90;;;;;;5021868;28;20399;-74
2020/12/01 13:07:33;;;;;;;39.95;24.08;;;3.40;99.90;;;;;;5026975;28;20033;-74
2020/12/01 13:09:58;;;;;;;45.33;28.33;;;3.40;99.90;;;;;;5021148;28;20030;-74
2020/12/01 13:12:24;;;;;;;48.80;28.20;;;3.50;99.90;;;;;;5024201;28;20490;-74
2020/12/01 13:14:50;;;;;;;29.05;18.35;;;3.50;99.90;;;;;;5021204;28;20029;-74
2020/12/01 13:17:15;;;;;;;29.10;19.85;;;3.40;99.90;;;;;;5019991;28;20034;-74
2020/12/01 13:19:41;;;;;;;28.15;17.20;;;3.50;99.90;;;;;;5021153;28;20054;-74
2020/12/01 13:22:06;;;;;;;21.38;13.60;;;3.60;99.90;;;;;;5022583;28;20519;-75
2020/12/01 13:24:32;;;;;;;19.20;13.50;;;3.60;99.90;;;;;;5017026;28;20455;-74
2020/12/01 13:26:58;;;;;;;19.83;12.10;;;3.60;99.90;;;;;;5018436;28;20402;-74
2020/12/01 13:29:23;;;;;;;20.67;12.48;;;3.60;99.90;;;;;;5022901;28;20339;-74
2020/12/01 13:31:49;;;;;;;19.42;12.05;;;3.70;99.90;;;;;;5017381;28;20107;-74
2020/12/01 13:34:16;;;;;;;18.40;11.57;;;3.70;99.90;;;;;;5020373;28;20036;-75
2020/12/01 13:36:42;;;;;;;22.92;13.73;;;3.70;99.90;;;;;;5017364;28;20040;-75
2020/12/01 13:39:09;;;;;;;22.20;14.93;;;3.80;99.90;;;;;;5023034;28;20128;-75
2020/12/01 13:41:34;;;;;;;20.33;13.55;;;3.80;99.90;;;;;;5016684;28;20037;-73